Time,TemperatureF,DewpointF,PressureIn,WindDirection,WindDirectionDegrees,WindSpeedMPH,WindSpeedGustMPH,Humidity,HourlyPrecipIn,Conditions,Clouds,dailyrainin,SoftwareType,DateUTC
2013-02-23 00:02:00,13.7,11.8,29.95,West,267,7.0,14.0,92,0.00,,,0.00,Wunderground v.1.15,2013-02-23 06:02:00,
2013-02-23 00:04:00,13.7,11.8,29.95,West,267,7.0,14.0,92,0.00,,,0.00,Wunderground v.1.15,2013-02-23 06:04:00,
2013-02-23 00:06:00,13.7,11.8,29.94,West,270,7.0,14.0,92,0.00,,,0.00,Wunderground v.1.15,2013-02-23 06:06:00,
2013-02-23 00:12:00,13.4,11.5,29.94,West,276,7.0,7.0,92,0.00,,,0.00,Wunderground v.1.15,2013-02-23 06:12:00,
2013-02-23 00:14:00,13.3,11.4,29.94,West,278,6.0,7.0,92,0.00,,,0.00,Wunderground v.1.15,2013-02-23 06:14:00,
2013-02-23 00:18:00,13.2,11.3,29.94,West,275,6.0,8.0,92,0.00,,,0.00,Wunderground v.1.15,2013-02-23 06:18:00,
2013-02-23 00:20:00,13.2,11.3,29.94,West,271,6.0,6.0,92,0.00,,,0.00,Wunderground v.1.15,2013-02-23 06:20:00,
2013-02-23 00:21:00,13.1,11.2,29.94,West,270,6.0,6.0,92,0.00,,,0.00,Wunderground v.1.15,2013-02-23 06:21:00,
2013-02-23 00:24:00,13.0,11.1,29.95,West,266,6.0,6.0,92,0.00,,,0.00,Wunderground v.1.15,2013-02-23 06:24:00,
2013-02-23 00:29:00,12.6,10.7,29.94,West,259,6.0,7.0,92,0.00,,,0.00,Wunderground v.1.15,2013-02-23 06:29:00,
2013-02-23 00:36:00,12.1,10.0,29.94,WSW,256,6.0,7.0,91,0.00,,,0.00,Wunderground v.1.15,2013-02-23 06:36:00,
2013-02-23 00:42:00,11.9,10.0,29.94,WSW,255,7.0,7.0,92,0.00,,,0.00,Wunderground v.1.15,2013-02-23 06:42:00,
2013-02-23 00:48:00,11.8,9.9,29.95,West,266,7.0,8.0,92,0.00,,,0.00,Wunderground v.1.15,2013-02-23 06:48:00,
2013-02-23 00:51:00,11.8,9.9,29.94,West,259,6.0,6.0,92,0.00,,,0.00,Wunderground v.1.15,2013-02-23 06:51:00,
2013-02-23 00:53:00,11.8,9.9,29.94,WSW,250,6.0,6.0,92,0.00,,,0.00,Wunderground v.1.15,2013-02-23 06:53:00,
2013-02-23 00:56:00,11.8,9.9,29.94,West,259,5.0,6.0,92,0.00,,,0.00,Wunderground v.1.15,2013-02-23 06:56:00,
2013-02-23 01:00:00,11.8,9.9,29.94,West,263,5.0,5.0,92,0.00,,,0.00,Wunderground v.1.15,2013-02-23 07:00:00,
2013-02-23 01:02:00,11.8,9.9,29.94,West,262,5.0,10.0,92,0.00,,,0.00,Wunderground v.1.15,2013-02-23 07:02:00,
2013-02-23 01:04:00,11.9,10.0,29.94,West,263,5.0,10.0,92,0.00,,,0.00,Wunderground v.1.15,2013-02-23 07:04:00,
2013-02-23 01:06:00,11.9,10.0,29.94,West,271,5.0,10.0,92,0.00,,,0.00,Wunderground v.1.15,2013-02-23 07:06:00,
2013-02-23 01:10:00,11.9,10.0,29.94,West,270,5.0,10.0,92,0.00,,,0.00,Wunderground v.1.15,2013-02-23 07:10:00,
2013-02-23 01:11:00,11.8,9.9,29.94,West,265,5.0,10.0,92,0.00,,,0.00,Wunderground v.1.15,2013-02-23 07:11:00,
2013-02-23 01:16:00,11.6,9.7,29.94,WSW,258,5.0,10.0,92,0.00,,,0.00,Wunderground v.1.15,2013-02-23 07:16:00,
2013-02-23 01:18:00,11.5,9.6,29.94,WSW,257,5.0,10.0,92,0.00,,,0.00,Wunderground v.1.15,2013-02-23 07:18:00,
2013-02-23 01:20:00,11.5,9.6,29.94,WSW,246,5.0,10.0,92,0.00,,,0.00,Wunderground v.1.15,2013-02-23 07:20:00,
2013-02-23 01:22:00,11.4,9.5,29.94,WSW,257,5.0,10.0,92,0.00,,,0.00,Wunderground v.1.15,2013-02-23 07:22:00,
2013-02-23 01:24:00,11.3,9.2,29.94,West,259,5.0,10.0,91,0.00,,,0.00,Wunderground v.1.15,2013-02-23 07:24:00,
2013-02-23 01:26:00,11.2,9.3,29.94,West,259,5.0,10.0,92,0.00,,,0.00,Wunderground v.1.15,2013-02-23 07:26:00,
2013-02-23 01:30:00,11.0,8.9,29.94,West,261,5.0,10.0,91,0.00,,,0.00,Wunderground v.1.15,2013-02-23 07:30:00,
2013-02-23 01:32:00,11.0,9.1,29.94,West,270,5.0,10.0,92,0.00,,,0.00,Wunderground v.1.15,2013-02-23 07:32:00,
2013-02-23 01:35:00,10.9,9.0,29.94,West,263,5.0,10.0,92,0.00,,,0.00,Wunderground v.1.15,2013-02-23 07:35:00,
2013-02-23 01:38:00,10.9,9.0,29.94,West,263,5.0,10.0,92,0.00,,,0.00,Wunderground v.1.15,2013-02-23 07:38:00,
2013-02-23 01:44:00,10.7,8.6,29.94,WSW,257,4.0,10.0,91,0.00,,,0.00,Wunderground v.1.15,2013-02-23 07:44:00,
2013-02-23 01:48:00,10.4,8.3,29.94,West,262,4.0,10.0,91,0.00,,,0.00,Wunderground v.1.15,2013-02-23 07:48:00,
2013-02-23 01:50:00,10.3,8.2,29.94,West,269,4.0,4.0,91,0.00,,,0.00,Wunderground v.1.15,2013-02-23 07:50:00,
2013-02-23 01:54:00,10.0,7.9,29.94,West,270,4.0,10.0,91,0.00,,,0.00,Wunderground v.1.15,2013-02-23 07:54:00,
2013-02-23 01:56:00,9.9,7.8,29.94,West,280,3.0,10.0,91,0.00,,,0.00,Wunderground v.1.15,2013-02-23 07:56:00,
2013-02-23 02:00:00,9.6,7.5,29.94,West,275,3.0,3.0,91,0.00,,,0.00,Wunderground v.1.15,2013-02-23 08:00:00,
2013-02-23 02:02:00,9.5,7.4,29.94,West,278,3.0,10.0,91,0.00,,,0.00,Wunderground v.1.15,2013-02-23 08:02:00,
2013-02-23 02:06:00,9.4,7.3,29.93,West,274,2.0,10.0,91,0.00,,,0.00,Wunderground v.1.15,2013-02-23 08:06:00,
2013-02-23 02:08:00,9.3,7.2,29.94,West,269,2.0,10.0,91,0.00,,,0.00,Wunderground v.1.15,2013-02-23 08:08:00,
2013-02-23 02:10:00,9.2,7.1,29.94,WSW,256,2.0,10.0,91,0.00,,,0.00,Wunderground v.1.15,2013-02-23 08:10:00,
2013-02-23 02:12:00,9.2,7.1,29.94,WSW,252,3.0,10.0,91,0.00,,,0.00,Wunderground v.1.15,2013-02-23 08:12:00,
2013-02-23 02:16:00,9.1,7.0,29.94,West,260,3.0,10.0,91,0.00,,,0.00,Wunderground v.1.15,2013-02-23 08:16:00,
2013-02-23 02:19:00,9.0,6.9,29.93,West,267,4.0,4.0,91,0.00,,,0.00,Wunderground v.1.15,2013-02-23 08:19:00,
2013-02-23 02:23:00,8.9,6.8,29.93,West,277,3.0,10.0,91,0.00,,,0.00,Wunderground v.1.15,2013-02-23 08:23:00,
2013-02-23 02:26:00,8.8,6.7,29.93,West,276,3.0,10.0,91,0.00,,,0.00,Wunderground v.1.15,2013-02-23 08:26:00,
2013-02-23 02:28:00,8.7,6.6,29.94,West,281,3.0,10.0,91,0.00,,,0.00,Wunderground v.1.15,2013-02-23 08:28:00,
2013-02-23 02:30:00,8.5,6.4,29.94,West,274,3.0,3.0,91,0.00,,,0.00,Wunderground v.1.15,2013-02-23 08:30:00,
2013-02-23 02:36:00,8.0,5.7,29.94,WSW,250,2.0,10.0,90,0.00,,,0.00,Wunderground v.1.15,2013-02-23 08:36:00,
2013-02-23 02:38:00,7.8,5.5,29.93,West,260,2.0,10.0,90,0.00,,,0.00,Wunderground v.1.15,2013-02-23 08:38:00,
2013-02-23 02:40:00,7.7,5.4,29.93,West,263,2.0,10.0,90,0.00,,,0.00,Wunderground v.1.15,2013-02-23 08:40:00,
2013-02-23 02:43:00,7.5,5.2,29.93,West,262,2.0,10.0,90,0.00,,,0.00,Wunderground v.1.15,2013-02-23 08:43:00,
2013-02-23 02:46:00,7.2,4.9,29.93,West,260,2.0,10.0,90,0.00,,,0.00,Wunderground v.1.15,2013-02-23 08:46:00,
2013-02-23 02:50:00,6.8,4.5,29.93,WSW,252,2.0,10.0,90,0.00,,,0.00,Wunderground v.1.15,2013-02-23 08:50:00,
2013-02-23 02:52:00,6.7,4.4,29.93,WSW,248,2.0,10.0,90,0.00,,,0.00,Wunderground v.1.15,2013-02-23 08:52:00,
2013-02-23 02:54:00,6.6,4.3,29.93,WSW,252,2.0,10.0,90,0.00,,,0.00,Wunderground v.1.15,2013-02-23 08:54:00,
2013-02-23 02:56:00,6.5,4.2,29.93,WSW,252,3.0,10.0,90,0.00,,,0.00,Wunderground v.1.15,2013-02-23 08:56:00,
2013-02-23 02:58:00,6.5,4.2,29.93,WSW,253,3.0,10.0,90,0.00,,,0.00,Wunderground v.1.15,2013-02-23 08:58:00,
2013-02-23 03:00:00,6.4,4.1,29.93,WSW,252,2.0,2.0,90,0.00,,,0.00,Wunderground v.1.15,2013-02-23 09:00:00,
2013-02-23 03:02:00,6.1,3.6,29.93,WSW,253,2.0,10.0,89,0.00,,,0.00,Wunderground v.1.15,2013-02-23 09:02:00,
2013-02-23 03:05:00,5.8,3.5,29.93,West,264,2.0,10.0,90,0.00,,,0.00,Wunderground v.1.15,2013-02-23 09:05:00,
2013-02-23 03:08:00,5.7,3.4,29.93,West,267,2.0,10.0,90,0.00,,,0.00,Wunderground v.1.15,2013-02-23 09:08:00,
2013-02-23 03:10:00,5.5,3.0,29.93,West,267,2.0,2.0,89,0.00,,,0.00,Wunderground v.1.15,2013-02-23 09:10:00,
2013-02-23 03:12:00,5.3,2.8,29.93,West,274,2.0,10.0,89,0.00,,,0.00,Wunderground v.1.15,2013-02-23 09:12:00,
2013-02-23 03:16:00,5.1,2.8,29.92,West,276,1.0,10.0,90,0.00,,,0.00,Wunderground v.1.15,2013-02-23 09:16:00,
2013-02-23 03:20:00,5.0,2.7,29.92,West,267,1.0,10.0,90,0.00,,,0.00,Wunderground v.1.15,2013-02-23 09:20:00,
2013-02-23 03:22:00,5.0,2.7,29.92,West,270,1.0,10.0,90,0.00,,,0.00,Wunderground v.1.15,2013-02-23 09:22:00,
2013-02-23 03:23:00,5.1,2.8,29.92,SW,235,1.0,10.0,90,0.00,,,0.00,Wunderground v.1.15,2013-02-23 09:23:00,
2013-02-23 03:25:00,5.1,2.8,29.92,WSW,253,1.0,10.0,90,0.00,,,0.00,Wunderground v.1.15,2013-02-23 09:25:00,
2013-02-23 03:27:00,5.1,2.8,29.92,WSW,252,1.0,10.0,90,0.00,,,0.00,Wunderground v.1.15,2013-02-23 09:27:00,
2013-02-23 03:30:00,5.2,2.9,29.92,WSW,250,1.0,10.0,90,0.00,,,0.00,Wunderground v.1.15,2013-02-23 09:30:00,
2013-02-23 03:32:00,5.2,2.9,29.92,WSW,250,1.0,10.0,90,0.00,,,0.00,Wunderground v.1.15,2013-02-23 09:32:00,
2013-02-23 03:38:00,5.5,3.4,29.92,SW,235,1.0,10.0,91,0.00,,,0.00,Wunderground v.1.15,2013-02-23 09:38:00,
2013-02-23 03:44:00,5.2,2.9,29.92,WSW,252,2.0,10.0,90,0.00,,,0.00,Wunderground v.1.15,2013-02-23 09:44:00,
2013-02-23 03:46:00,5.2,2.9,29.92,WSW,245,2.0,10.0,90,0.00,,,0.00,Wunderground v.1.15,2013-02-23 09:46:00,
2013-02-23 03:50:00,5.9,4.1,29.92,SW,219,3.0,3.0,92,0.00,,,0.00,Wunderground v.1.15,2013-02-23 09:50:00,
2013-02-23 03:52:00,6.2,4.4,29.92,WSW,245,3.0,4.0,92,0.00,,,0.00,Wunderground v.1.15,2013-02-23 09:52:00,
2013-02-23 03:54:00,6.4,4.6,29.92,WSW,252,4.0,10.0,92,0.00,,,0.00,Wunderground v.1.15,2013-02-23 09:54:00,
2013-02-23 03:58:00,6.3,4.2,29.92,WSW,255,4.0,10.0,91,0.00,,,0.00,Wunderground v.1.15,2013-02-23 09:58:00,
2013-02-23 04:00:00,6.0,3.7,29.92,WSW,249,4.0,10.0,90,0.00,,,0.00,Wunderground v.1.15,2013-02-23 10:00:00,
2013-02-23 04:04:00,5.6,3.3,29.92,WSW,254,5.0,10.0,90,0.00,,,0.00,Wunderground v.1.15,2013-02-23 10:04:00,
2013-02-23 04:06:00,5.6,3.3,29.92,WSW,250,5.0,10.0,90,0.00,,,0.00,Wunderground v.1.15,2013-02-23 10:06:00,
2013-02-23 04:10:00,5.8,3.7,29.93,WSW,249,5.0,10.0,91,0.00,,,0.00,Wunderground v.1.15,2013-02-23 10:10:00,
2013-02-23 04:14:00,5.9,3.8,29.93,WSW,247,5.0,10.0,91,0.00,,,0.00,Wunderground v.1.15,2013-02-23 10:14:00,
2013-02-23 04:16:00,5.9,3.8,29.93,WSW,252,5.0,10.0,91,0.00,,,0.00,Wunderground v.1.15,2013-02-23 10:16:00,
2013-02-23 04:20:00,5.6,3.3,29.93,WSW,253,5.0,10.0,90,0.00,,,0.00,Wunderground v.1.15,2013-02-23 10:20:00,
2013-02-23 04:24:00,5.3,3.0,29.92,WSW,250,5.0,10.0,90,0.00,,,0.00,Wunderground v.1.15,2013-02-23 10:24:00,
2013-02-23 04:28:00,5.7,3.6,29.92,WSW,251,5.0,10.0,91,0.00,,,0.00,Wunderground v.1.15,2013-02-23 10:28:00,
2013-02-23 04:32:00,6.1,4.0,29.93,WSW,249,6.0,10.0,91,0.00,,,0.00,Wunderground v.1.15,2013-02-23 10:32:00,
2013-02-23 04:34:00,6.2,4.1,29.92,WSW,253,6.0,10.0,91,0.00,,,0.00,Wunderground v.1.15,2013-02-23 10:34:00,
2013-02-23 04:36:00,6.1,4.0,29.92,West,264,5.0,10.0,91,0.00,,,0.00,Wunderground v.1.15,2013-02-23 10:36:00,
2013-02-23 04:38:00,5.9,3.6,29.92,West,267,5.0,10.0,90,0.00,,,0.00,Wunderground v.1.15,2013-02-23 10:38:00,
2013-02-23 04:40:00,5.7,3.4,29.92,West,266,4.0,4.0,90,0.00,,,0.00,Wunderground v.1.15,2013-02-23 10:40:00,
2013-02-23 04:46:00,5.0,2.5,29.92,WNW,283,3.0,10.0,89,0.00,,,0.00,Wunderground v.1.15,2013-02-23 10:46:00,
2013-02-23 04:48:00,4.7,2.2,29.92,West,281,3.0,10.0,89,0.00,,,0.00,Wunderground v.1.15,2013-02-23 10:48:00,
2013-02-23 04:52:00,4.1,1.6,29.92,WNW,282,2.0,10.0,89,0.00,,,0.00,Wunderground v.1.15,2013-02-23 10:52:00,
2013-02-23 04:54:00,3.9,1.4,29.92,WNW,283,2.0,10.0,89,0.00,,,0.00,Wunderground v.1.15,2013-02-23 10:54:00,
2013-02-23 04:58:00,3.5,0.7,29.92,West,271,1.0,10.0,88,0.00,,,0.00,Wunderground v.1.15,2013-02-23 10:58:00,
2013-02-23 05:00:00,3.3,0.5,29.92,West,271,1.0,1.0,88,0.00,,,0.00,Wunderground v.1.15,2013-02-23 11:00:00,
2013-02-23 05:04:00,3.2,0.7,29.92,West,271,0.0,10.0,89,0.00,,,0.00,Wunderground v.1.15,2013-02-23 11:04:00,
2013-02-23 05:10:00,3.0,0.5,29.92,West,271,0.0,10.0,89,0.00,,,0.00,Wunderground v.1.15,2013-02-23 11:10:00,
2013-02-23 05:12:00,2.9,0.4,29.92,West,271,0.0,10.0,89,0.00,,,0.00,Wunderground v.1.15,2013-02-23 11:12:00,
2013-02-23 05:16:00,3.0,0.7,29.92,West,271,0.0,10.0,90,0.00,,,0.00,Wunderground v.1.15,2013-02-23 11:16:00,
2013-02-23 05:20:00,3.5,1.2,29.92,West,271,0.0,10.0,90,0.00,,,0.00,Wunderground v.1.15,2013-02-23 11:20:00,
2013-02-23 05:22:00,3.7,1.7,29.92,West,271,0.0,10.0,91,0.00,,,0.00,Wunderground v.1.15,2013-02-23 11:22:00,
2013-02-23 05:26:00,3.9,1.9,29.92,West,271,0.0,10.0,91,0.00,,,0.00,Wunderground v.1.15,2013-02-23 11:26:00,
2013-02-23 05:28:00,3.9,1.6,29.92,West,271,0.0,10.0,90,0.00,,,0.00,Wunderground v.1.15,2013-02-23 11:28:00,
2013-02-23 05:32:00,3.8,1.5,29.92,WSW,246,0.0,10.0,90,0.00,,,0.00,Wunderground v.1.15,2013-02-23 11:32:00,
2013-02-23 05:34:00,3.7,1.4,29.92,WSW,243,0.0,10.0,90,0.00,,,0.00,Wunderground v.1.15,2013-02-23 11:34:00,
2013-02-23 05:38:00,3.7,1.4,29.93,SW,226,1.0,10.0,90,0.00,,,0.00,Wunderground v.1.15,2013-02-23 11:38:00,
2013-02-23 05:40:00,3.8,1.5,29.93,SW,231,1.0,1.0,90,0.00,,,0.00,Wunderground v.1.15,2013-02-23 11:40:00,
2013-02-23 05:46:00,3.9,1.6,29.93,WSW,241,1.0,10.0,90,0.00,,,0.00,Wunderground v.1.15,2013-02-23 11:46:00,
2013-02-23 05:48:00,3.9,1.6,29.93,WSW,243,1.0,10.0,90,0.00,,,0.00,Wunderground v.1.15,2013-02-23 11:48:00,
2013-02-23 05:52:00,3.5,1.0,29.93,SW,232,1.0,10.0,89,0.00,,,0.00,Wunderground v.1.15,2013-02-23 11:52:00,
2013-02-23 05:54:00,3.5,1.2,29.93,SW,228,2.0,10.0,90,0.00,,,0.00,Wunderground v.1.15,2013-02-23 11:54:00,
2013-02-23 05:56:00,3.6,1.3,29.93,SW,224,2.0,10.0,90,0.00,,,0.00,Wunderground v.1.15,2013-02-23 11:56:00,
2013-02-23 05:57:00,3.7,1.4,29.93,SW,225,2.0,10.0,90,0.00,,,0.00,Wunderground v.1.15,2013-02-23 11:57:00,
2013-02-23 06:02:00,3.9,1.9,29.93,SW,224,1.0,10.0,91,0.00,,,0.00,Wunderground v.1.15,2013-02-23 12:02:00,
2013-02-23 06:04:00,4.0,2.0,29.93,SW,219,1.0,10.0,91,0.00,,,0.00,Wunderground v.1.15,2013-02-23 12:04:00,
2013-02-23 06:06:00,4.0,1.7,29.93,SW,219,1.0,10.0,90,0.00,,,0.00,Wunderground v.1.15,2013-02-23 12:06:00,
2013-02-23 06:10:00,4.0,1.7,29.93,SW,231,1.0,10.0,90,0.00,,,0.00,Wunderground v.1.15,2013-02-23 12:10:00,
2013-02-23 06:12:00,3.9,1.6,29.93,SW,221,2.0,10.0,90,0.00,,,0.00,Wunderground v.1.15,2013-02-23 12:12:00,
2013-02-23 06:14:00,3.8,1.5,29.93,SW,228,2.0,10.0,90,0.00,,,0.00,Wunderground v.1.15,2013-02-23 12:14:00,
2013-02-23 06:18:00,3.8,1.5,29.93,SW,224,2.0,10.0,90,0.00,,,0.00,Wunderground v.1.15,2013-02-23 12:18:00,
2013-02-23 06:19:00,3.8,1.5,29.93,SW,217,2.0,10.0,90,0.00,,,0.00,Wunderground v.1.15,2013-02-23 12:19:00,
2013-02-23 06:21:00,3.7,1.4,29.93,SW,221,2.0,10.0,90,0.00,,,0.00,Wunderground v.1.15,2013-02-23 12:21:00,
2013-02-23 06:26:00,3.6,1.3,29.94,SW,224,1.0,10.0,90,0.00,,,0.00,Wunderground v.1.15,2013-02-23 12:26:00,
2013-02-23 06:28:00,3.6,1.3,29.93,SW,226,1.0,10.0,90,0.00,,,0.00,Wunderground v.1.15,2013-02-23 12:28:00,
2013-02-23 06:30:00,3.6,1.3,29.93,SW,224,1.0,10.0,90,0.00,,,0.00,Wunderground v.1.15,2013-02-23 12:30:00,
2013-02-23 06:34:00,3.5,1.2,29.94,SW,214,2.0,10.0,90,0.00,,,0.00,Wunderground v.1.15,2013-02-23 12:34:00,
2013-02-23 06:36:00,3.4,1.1,29.94,SW,217,2.0,10.0,90,0.00,,,0.00,Wunderground v.1.15,2013-02-23 12:36:00,
2013-02-23 06:40:00,3.2,0.7,29.94,SW,221,2.0,2.0,89,0.00,,,0.00,Wunderground v.1.15,2013-02-23 12:40:00,
2013-02-23 06:42:00,3.1,0.6,29.94,SW,218,2.0,10.0,89,0.00,,,0.00,Wunderground v.1.15,2013-02-23 12:42:00,
2013-02-23 06:48:00,2.8,0.3,29.93,SW,223,2.0,10.0,89,0.00,,,0.00,Wunderground v.1.15,2013-02-23 12:48:00,
2013-02-23 06:50:00,2.7,0.2,29.93,SW,227,2.0,10.0,89,0.00,,,0.00,Wunderground v.1.15,2013-02-23 12:50:00,
2013-02-23 06:54:00,2.6,0.1,29.93,WSW,240,2.0,10.0,89,0.00,,,0.00,Wunderground v.1.15,2013-02-23 12:54:00,
2013-02-23 06:56:00,2.6,0.3,29.93,SW,226,1.0,10.0,90,0.00,,,0.00,Wunderground v.1.15,2013-02-23 12:56:00,
2013-02-23 07:00:00,2.8,0.5,29.93,WSW,239,2.0,10.0,90,0.00,,,0.00,Wunderground v.1.15,2013-02-23 13:00:00,
2013-02-23 07:02:00,2.9,0.6,29.93,SW,220,2.0,10.0,90,0.00,,,0.00,Wunderground v.1.15,2013-02-23 13:02:00,
2013-02-23 07:05:00,2.9,0.6,29.93,SW,225,2.0,10.0,90,0.00,,,0.00,Wunderground v.1.15,2013-02-23 13:05:00,
2013-02-23 07:08:00,2.8,0.5,29.94,SSW,193,2.0,10.0,90,0.00,,,0.00,Wunderground v.1.15,2013-02-23 13:08:00,
2013-02-23 07:12:00,2.7,0.2,29.93,SW,221,1.0,10.0,89,0.00,,,0.00,Wunderground v.1.15,2013-02-23 13:12:00,
2013-02-23 07:14:00,2.6,0.1,29.93,SW,221,1.0,10.0,89,0.00,,,0.00,Wunderground v.1.15,2013-02-23 13:14:00,
2013-02-23 07:16:00,2.6,0.1,29.93,SW,221,0.0,10.0,89,0.00,,,0.00,Wunderground v.1.15,2013-02-23 13:16:00,
2013-02-23 07:20:00,2.4,-0.1,29.93,SW,221,0.0,10.0,89,0.00,,,0.00,Wunderground v.1.15,2013-02-23 13:20:00,
2013-02-23 07:26:00,1.9,-0.8,29.93,South,179,0.0,10.0,88,0.00,,,0.00,Wunderground v.1.15,2013-02-23 13:26:00,
2013-02-23 07:27:00,1.7,-1.0,29.94,South,179,0.0,10.0,88,0.00,,,0.00,Wunderground v.1.15,2013-02-23 13:27:00,
2013-02-23 07:30:00,1.5,-1.2,29.93,South,177,0.0,10.0,88,0.00,,,0.00,Wunderground v.1.15,2013-02-23 13:30:00,
2013-02-23 07:34:00,1.5,-1.0,29.94,South,177,0.0,10.0,89,0.00,,,0.00,Wunderground v.1.15,2013-02-23 13:34:00,
2013-02-23 07:38:00,1.5,-1.0,29.94,South,177,0.0,10.0,89,0.00,,,0.00,Wunderground v.1.15,2013-02-23 13:38:00,
2013-02-23 07:40:00,1.5,-1.0,29.94,South,177,0.0,10.0,89,0.00,,,0.00,Wunderground v.1.15,2013-02-23 13:40:00,
2013-02-23 07:44:00,1.5,-1.0,29.94,South,177,0.0,10.0,89,0.00,,,0.00,Wunderground v.1.15,2013-02-23 13:44:00,
2013-02-23 07:46:00,1.5,-1.0,29.94,South,177,0.0,10.0,89,0.00,,,0.00,Wunderground v.1.15,2013-02-23 13:46:00,
2013-02-23 07:48:00,1.4,-1.1,29.94,South,177,0.0,10.0,89,0.00,,,0.00,Wunderground v.1.15,2013-02-23 13:48:00,
2013-02-23 07:50:00,1.5,-1.0,29.94,South,177,0.0,10.0,89,0.00,,,0.00,Wunderground v.1.15,2013-02-23 13:50:00,
2013-02-23 07:52:00,1.6,-0.9,29.94,South,177,0.0,10.0,89,0.00,,,0.00,Wunderground v.1.15,2013-02-23 13:52:00,
2013-02-23 07:54:00,1.8,-0.5,29.94,South,176,0.0,10.0,90,0.00,,,0.00,Wunderground v.1.15,2013-02-23 13:54:00,
2013-02-23 07:56:00,1.9,-0.4,29.94,South,177,0.0,10.0,90,0.00,,,0.00,Wunderground v.1.15,2013-02-23 13:56:00,
2013-02-23 08:02:00,2.3,0.0,29.94,SW,224,0.0,10.0,90,0.00,,,0.00,Wunderground v.1.15,2013-02-23 14:02:00,
2013-02-23 08:06:00,2.5,0.2,29.94,SW,224,0.0,10.0,90,0.00,,,0.00,Wunderground v.1.15,2013-02-23 14:06:00,
2013-02-23 08:10:00,2.8,0.5,29.94,WSW,257,0.0,10.0,90,0.00,,,0.00,Wunderground v.1.15,2013-02-23 14:10:00,
2013-02-23 08:12:00,3.0,0.7,29.94,WSW,257,0.0,10.0,90,0.00,,,0.00,Wunderground v.1.15,2013-02-23 14:12:00,
2013-02-23 08:16:00,3.5,1.5,29.94,WSW,257,0.0,10.0,91,0.00,,,0.00,Wunderground v.1.15,2013-02-23 14:16:00,
2013-02-23 08:20:00,3.9,1.6,29.94,WSW,257,0.0,10.0,90,0.00,,,0.00,Wunderground v.1.15,2013-02-23 14:20:00,
2013-02-23 08:26:00,4.2,1.9,29.94,WSW,257,0.0,10.0,90,0.00,,,0.00,Wunderground v.1.15,2013-02-23 14:26:00,
2013-02-23 08:30:00,4.4,2.1,29.94,WSW,253,0.0,10.0,90,0.00,,,0.00,Wunderground v.1.15,2013-02-23 14:30:00,
2013-02-23 08:36:00,5.1,3.0,29.94,WSW,252,0.0,10.0,91,0.00,,,0.00,Wunderground v.1.15,2013-02-23 14:36:00,
2013-02-23 08:38:00,5.3,3.2,29.94,WSW,238,0.0,10.0,91,0.00,,,0.00,Wunderground v.1.15,2013-02-23 14:38:00,
2013-02-23 08:42:00,5.8,3.7,29.94,WSW,239,1.0,10.0,91,0.00,,,0.00,Wunderground v.1.15,2013-02-23 14:42:00,
2013-02-23 08:44:00,6.0,3.9,29.94,SW,229,1.0,10.0,91,0.00,,,0.00,Wunderground v.1.15,2013-02-23 14:44:00,
2013-02-23 08:50:00,6.7,4.6,29.93,WSW,249,1.0,1.0,91,0.00,,,0.00,Wunderground v.1.15,2013-02-23 14:50:00,
2013-02-23 08:52:00,7.0,4.9,29.93,West,259,1.0,10.0,91,0.00,,,0.00,Wunderground v.1.15,2013-02-23 14:52:00,
2013-02-23 08:56:00,7.3,5.2,29.93,West,276,1.0,10.0,91,0.00,,,0.00,Wunderground v.1.15,2013-02-23 14:56:00,
2013-02-23 08:58:00,7.4,5.3,29.93,West,273,1.0,10.0,91,0.00,,,0.00,Wunderground v.1.15,2013-02-23 14:58:00,
2013-02-23 09:02:00,7.6,5.5,29.93,West,273,1.0,10.0,91,0.00,,,0.00,Wunderground v.1.15,2013-02-23 15:02:00,
2013-02-23 09:06:00,7.8,5.7,29.94,West,264,1.0,10.0,91,0.00,,,0.00,Wunderground v.1.15,2013-02-23 15:06:00,
2013-02-23 09:08:00,7.9,5.6,29.94,WSW,248,1.0,10.0,90,0.00,,,0.00,Wunderground v.1.15,2013-02-23 15:08:00,
2013-02-23 09:12:00,8.1,5.8,29.94,West,269,1.0,10.0,90,0.00,,,0.00,Wunderground v.1.15,2013-02-23 15:12:00,
2013-02-23 09:14:00,8.2,5.9,29.94,West,267,1.0,10.0,90,0.00,,,0.00,Wunderground v.1.15,2013-02-23 15:14:00,
2013-02-23 09:20:00,8.5,6.2,29.94,West,276,1.0,10.0,90,0.00,,,0.00,Wunderground v.1.15,2013-02-23 15:20:00,
2013-02-23 09:22:00,8.6,6.3,29.93,WSW,257,1.0,10.0,90,0.00,,,0.00,Wunderground v.1.15,2013-02-23 15:22:00,
2013-02-23 09:26:00,8.9,6.6,29.93,WSW,253,1.0,10.0,90,0.00,,,0.00,Wunderground v.1.15,2013-02-23 15:26:00,
2013-02-23 09:28:00,9.1,6.8,29.93,WSW,256,1.0,10.0,90,0.00,,,0.00,Wunderground v.1.15,2013-02-23 15:28:00,
2013-02-23 09:32:00,9.3,7.0,29.93,WSW,257,1.0,10.0,90,0.00,,,0.00,Wunderground v.1.15,2013-02-23 15:32:00,
2013-02-23 09:34:00,9.4,7.1,29.93,WSW,257,1.0,10.0,90,0.00,,,0.00,Wunderground v.1.15,2013-02-23 15:34:00,
2013-02-23 09:40:00,9.9,7.6,29.93,West,276,2.0,10.0,90,0.00,,,0.00,Wunderground v.1.15,2013-02-23 15:40:00,
2013-02-23 09:42:00,10.0,7.9,29.93,West,271,2.0,10.0,91,0.00,,,0.00,Wunderground v.1.15,2013-02-23 15:42:00,
2013-02-23 09:47:00,10.5,8.4,29.93,West,263,2.0,10.0,91,0.00,,,0.00,Wunderground v.1.15,2013-02-23 15:47:00,
2013-02-23 09:50:00,10.7,8.6,29.93,West,276,2.0,10.0,91,0.00,,,0.00,Wunderground v.1.15,2013-02-23 15:50:00,
2013-02-23 09:54:00,11.1,9.0,29.93,WSW,252,2.0,10.0,91,0.00,,,0.00,Wunderground v.1.15,2013-02-23 15:54:00,
2013-02-23 09:56:00,11.4,9.3,29.93,WSW,256,2.0,10.0,91,0.00,,,0.00,Wunderground v.1.15,2013-02-23 15:56:00,
2013-02-23 10:02:00,12.1,10.0,29.93,WSW,255,2.0,10.0,91,0.00,,,0.00,Wunderground v.1.15,2013-02-23 16:02:00,
2013-02-23 10:04:00,12.3,10.2,29.93,WSW,255,2.0,10.0,91,0.00,,,0.00,Wunderground v.1.15,2013-02-23 16:04:00,
2013-02-23 10:06:00,12.5,10.4,29.93,WSW,250,2.0,10.0,91,0.00,,,0.00,Wunderground v.1.15,2013-02-23 16:06:00,
2013-02-23 10:08:00,12.8,10.7,29.93,WSW,246,2.0,10.0,91,0.00,,,0.00,Wunderground v.1.15,2013-02-23 16:08:00,
2013-02-23 10:14:00,13.4,11.3,29.93,WSW,253,3.0,10.0,91,0.00,,,0.00,Wunderground v.1.15,2013-02-23 16:14:00,
2013-02-23 10:16:00,13.6,11.5,29.93,WSW,255,3.0,10.0,91,0.00,,,0.00,Wunderground v.1.15,2013-02-23 16:16:00,
2013-02-23 10:22:00,14.1,12.0,29.93,WSW,258,2.0,10.0,91,0.00,,,0.00,Wunderground v.1.15,2013-02-23 16:22:00,
2013-02-23 10:24:00,14.3,12.2,29.93,West,259,2.0,10.0,91,0.00,,,0.00,Wunderground v.1.15,2013-02-23 16:24:00,
2013-02-23 10:28:00,14.8,12.6,29.93,WNW,284,2.0,10.0,91,0.00,,,0.00,Wunderground v.1.15,2013-02-23 16:28:00,
2013-02-23 10:30:00,14.9,12.7,29.93,WNW,284,2.0,10.0,91,0.00,,,0.00,Wunderground v.1.15,2013-02-23 16:30:00,
2013-02-23 10:31:00,14.9,12.7,29.93,West,274,2.0,10.0,91,0.00,,,0.00,Wunderground v.1.15,2013-02-23 16:31:00,
2013-02-23 10:36:00,15.1,12.7,29.93,West,263,2.0,10.0,90,0.00,,,0.00,Wunderground v.1.15,2013-02-23 16:36:00,
2013-02-23 10:38:00,15.1,12.7,29.93,West,266,2.0,10.0,90,0.00,,,0.00,Wunderground v.1.15,2013-02-23 16:38:00,
2013-02-23 10:42:00,15.0,12.6,29.93,West,259,2.0,10.0,90,0.00,,,0.00,Wunderground v.1.15,2013-02-23 16:42:00,
2013-02-23 10:48:00,15.4,13.0,29.93,West,264,2.0,10.0,90,0.00,,,0.00,Wunderground v.1.15,2013-02-23 16:48:00,
2013-02-23 10:52:00,15.6,13.2,29.93,West,259,2.0,10.0,90,0.00,,,0.00,Wunderground v.1.15,2013-02-23 16:52:00,
2013-02-23 10:53:00,15.7,13.3,29.93,West,259,3.0,10.0,90,0.00,,,0.00,Wunderground v.1.15,2013-02-23 16:53:00,
2013-02-23 10:58:00,15.9,13.5,29.93,West,266,3.0,10.0,90,0.00,,,0.00,Wunderground v.1.15,2013-02-23 16:58:00,
2013-02-23 11:00:00,16.1,13.9,29.93,West,264,3.0,10.0,91,0.00,,,0.00,Wunderground v.1.15,2013-02-23 17:00:00,
2013-02-23 11:06:00,16.4,14.2,29.93,West,274,3.0,10.0,91,0.00,,,0.00,Wunderground v.1.15,2013-02-23 17:06:00,
2013-02-23 11:10:00,16.6,14.4,29.93,West,264,3.0,10.0,91,0.00,,,0.00,Wunderground v.1.15,2013-02-23 17:10:00,
2013-02-23 11:12:00,16.7,14.5,29.93,West,264,3.0,10.0,91,0.00,,,0.00,Wunderground v.1.15,2013-02-23 17:12:00,
2013-02-23 11:18:00,17.1,14.9,29.93,West,269,3.0,10.0,91,0.00,,,0.00,Wunderground v.1.15,2013-02-23 17:18:00,
2013-02-23 11:24:00,17.7,15.5,29.93,West,259,3.0,10.0,91,0.00,,,0.00,Wunderground v.1.15,2013-02-23 17:24:00,
2013-02-23 11:28:00,18.3,16.4,29.93,WSW,253,3.0,10.0,92,0.00,,,0.00,Wunderground v.1.15,2013-02-23 17:28:00,
2013-02-23 11:34:00,19.5,17.6,29.93,SW,235,4.0,10.0,92,0.00,,,0.00,Wunderground v.1.15,2013-02-23 17:34:00,
2013-02-23 11:38:00,19.9,17.4,29.93,WSW,246,4.0,10.0,90,0.00,,,0.00,Wunderground v.1.15,2013-02-23 17:38:00,
2013-02-23 11:42:00,19.9,17.2,29.93,WSW,256,5.0,10.0,89,0.00,,,0.00,Wunderground v.1.15,2013-02-23 17:42:00,
2013-02-23 11:44:00,19.9,17.2,29.93,WSW,254,5.0,10.0,89,0.00,,,0.00,Wunderground v.1.15,2013-02-23 17:44:00,
2013-02-23 11:48:00,20.2,17.5,29.93,WSW,242,5.0,10.0,89,0.00,,,0.00,Wunderground v.1.15,2013-02-23 17:48:00,
2013-02-23 11:54:00,20.9,17.9,29.93,SW,226,5.0,10.0,88,0.00,,,0.00,Wunderground v.1.15,2013-02-23 17:54:00,
2013-02-23 11:56:00,21.1,17.8,29.92,SW,236,5.0,10.0,87,0.00,,,0.00,Wunderground v.1.15,2013-02-23 17:56:00,
2013-02-23 12:00:00,21.2,17.4,29.92,WSW,238,5.0,10.0,85,0.00,,,0.00,Wunderground v.1.15,2013-02-23 18:00:00,
2013-02-23 12:02:00,21.3,17.5,29.92,WSW,253,6.0,10.0,85,0.00,,,0.00,Wunderground v.1.15,2013-02-23 18:02:00,
2013-02-23 12:04:00,21.3,17.2,29.92,SW,226,6.0,10.0,84,0.00,,,0.00,Wunderground v.1.15,2013-02-23 18:04:00,
2013-02-23 12:06:00,21.4,17.3,29.92,WSW,239,6.0,10.0,84,0.00,,,0.00,Wunderground v.1.15,2013-02-23 18:06:00,
2013-02-23 12:10:00,21.8,17.7,29.92,WSW,253,5.0,5.0,84,0.00,,,0.00,Wunderground v.1.15,2013-02-23 18:10:00,
2013-02-23 12:16:00,22.7,18.3,29.92,SW,232,4.0,5.0,83,0.00,,,0.00,Wunderground v.1.15,2013-02-23 18:16:00,
2013-02-23 12:18:00,23.1,18.7,29.92,SW,217,4.0,5.0,83,0.00,,,0.00,Wunderground v.1.15,2013-02-23 18:18:00,
2013-02-23 12:22:00,24.1,19.1,29.92,SE,141,3.0,3.0,81,0.00,,,0.00,Wunderground v.1.15,2013-02-23 18:22:00,
2013-02-23 12:24:00,24.6,19.9,29.92,SSE,156,3.0,3.0,82,0.00,,,0.00,Wunderground v.1.15,2013-02-23 18:24:00,
2013-02-23 12:28:00,25.6,20.0,29.91,SE,133,2.0,3.0,79,0.00,,,0.00,Wunderground v.1.15,2013-02-23 18:28:00,
2013-02-23 12:30:00,26.2,21.5,29.92,SE,135,2.0,2.0,82,0.00,,,0.00,Wunderground v.1.15,2013-02-23 18:30:00,
2013-02-23 12:32:00,27.0,21.9,29.91,SE,141,1.0,2.0,81,0.00,,,0.00,Wunderground v.1.15,2013-02-23 18:32:00,
2013-02-23 12:34:00,27.7,21.7,29.91,SSE,150,1.0,2.0,78,0.00,,,0.00,Wunderground v.1.15,2013-02-23 18:34:00,
2013-02-23 12:36:00,28.3,21.7,29.92,WSW,240,1.0,2.0,76,0.00,,,0.00,Wunderground v.1.15,2013-02-23 18:36:00,
2013-02-23 12:40:00,28.7,20.8,29.91,SSW,212,1.0,2.0,72,0.00,,,0.00,Wunderground v.1.15,2013-02-23 18:40:00,
2013-02-23 12:42:00,28.8,21.2,29.91,SE,135,1.0,2.0,73,0.00,,,0.00,Wunderground v.1.15,2013-02-23 18:42:00,
2013-02-23 12:48:00,29.1,21.2,29.91,SE,142,2.0,2.0,72,0.00,,,0.00,Wunderground v.1.15,2013-02-23 18:48:00,
2013-02-23 12:50:00,29.1,21.2,29.91,SE,131,2.0,2.0,72,0.00,,,0.00,Wunderground v.1.15,2013-02-23 18:50:00,
2013-02-23 12:54:00,29.0,21.1,29.91,SSE,159,2.0,2.0,72,0.00,,,0.00,Wunderground v.1.15,2013-02-23 18:54:00,
2013-02-23 12:56:00,29.2,21.0,29.91,SE,133,2.0,3.0,71,0.00,,,0.00,Wunderground v.1.15,2013-02-23 18:56:00,
2013-02-23 12:58:00,29.2,21.0,29.91,SE,131,2.0,3.0,71,0.00,,,0.00,Wunderground v.1.15,2013-02-23 18:58:00,
2013-02-23 13:00:00,29.2,20.6,29.91,SE,141,2.0,2.0,70,0.00,,,0.00,Wunderground v.1.15,2013-02-23 19:00:00,
2013-02-23 13:04:00,29.3,20.7,29.91,SSE,153,3.0,4.0,70,0.00,,,0.00,Wunderground v.1.15,2013-02-23 19:04:00,
2013-02-23 13:08:00,28.9,20.7,29.90,SE,128,3.0,7.0,71,0.00,,,0.00,Wunderground v.1.15,2013-02-23 19:08:00,
2013-02-23 13:12:00,28.6,20.4,29.90,SE,139,3.0,7.0,71,0.00,,,0.00,Wunderground v.1.15,2013-02-23 19:12:00,
2013-02-23 13:16:00,28.2,20.0,29.90,SSE,148,3.0,7.0,71,0.00,,,0.00,Wunderground v.1.15,2013-02-23 19:16:00,
2013-02-23 13:18:00,28.2,20.3,29.90,SSE,152,3.0,7.0,72,0.00,,,0.00,Wunderground v.1.15,2013-02-23 19:18:00,
2013-02-23 13:20:00,28.2,20.0,29.90,SE,145,3.0,7.0,71,0.00,,,0.00,Wunderground v.1.15,2013-02-23 19:20:00,
2013-02-23 13:24:00,28.3,20.4,29.90,SE,132,3.0,7.0,72,0.00,,,0.00,Wunderground v.1.15,2013-02-23 19:24:00,
2013-02-23 13:29:00,28.6,20.4,29.90,SE,143,3.0,3.0,71,0.00,,,0.00,Wunderground v.1.15,2013-02-23 19:29:00,
2013-02-23 13:32:00,28.9,20.7,29.90,SSE,160,3.0,7.0,71,0.00,,,0.00,Wunderground v.1.15,2013-02-23 19:32:00,
2013-02-23 13:38:00,29.5,20.9,29.90,SSE,155,3.0,7.0,70,0.00,,,0.00,Wunderground v.1.15,2013-02-23 19:38:00,
2013-02-23 13:42:00,29.7,20.8,29.90,SSE,150,3.0,7.0,69,0.00,,,0.00,Wunderground v.1.15,2013-02-23 19:42:00,
2013-02-23 13:44:00,29.7,20.8,29.90,SSE,156,3.0,7.0,69,0.00,,,0.00,Wunderground v.1.15,2013-02-23 19:44:00,
2013-02-23 13:47:00,29.8,20.9,29.90,SE,130,3.0,7.0,69,0.00,,,0.00,Wunderground v.1.15,2013-02-23 19:47:00,
2013-02-23 13:49:00,29.6,20.7,29.90,SE,135,3.0,7.0,69,0.00,,,0.00,Wunderground v.1.15,2013-02-23 19:49:00,
2013-02-23 13:54:00,29.2,20.3,29.90,SE,145,3.0,7.0,69,0.00,,,0.00,Wunderground v.1.15,2013-02-23 19:54:00,
2013-02-23 14:00:00,28.9,20.3,29.90,SE,136,4.0,4.0,70,0.00,,,0.00,Wunderground v.1.15,2013-02-23 20:00:00,
2013-02-23 14:06:00,29.0,20.4,29.90,SE,135,4.0,7.0,70,0.00,,,0.00,Wunderground v.1.15,2013-02-23 20:06:00,
2013-02-23 14:11:00,29.2,20.6,29.89,South,172,3.0,7.0,70,0.00,,,0.00,Wunderground v.1.15,2013-02-23 20:11:00,
2013-02-23 14:14:00,29.2,20.6,29.89,SSE,159,3.0,7.0,70,0.00,,,0.00,Wunderground v.1.15,2013-02-23 20:14:00,
2013-02-23 14:20:00,29.6,21.0,29.89,SSE,150,3.0,7.0,70,0.00,,,0.00,Wunderground v.1.15,2013-02-23 20:20:00,
2013-02-23 14:26:00,29.7,20.8,29.89,SE,136,3.0,7.0,69,0.00,,,0.00,Wunderground v.1.15,2013-02-23 20:26:00,
2013-02-23 14:31:00,29.8,20.9,29.89,SE,142,2.0,7.0,69,0.00,,,0.00,Wunderground v.1.15,2013-02-23 20:31:00,
2013-02-23 14:33:00,29.8,21.2,29.89,SE,134,2.0,7.0,70,0.00,,,0.00,Wunderground v.1.15,2013-02-23 20:33:00,
2013-02-23 14:40:00,30.0,21.4,29.89,SE,132,2.0,7.0,70,0.00,,,0.00,Wunderground v.1.15,2013-02-23 20:40:00,
2013-02-23 14:46:00,30.4,21.4,29.89,SE,134,2.0,7.0,69,0.00,,,0.00,Wunderground v.1.15,2013-02-23 20:46:00,
2013-02-23 14:50:00,30.9,22.3,29.89,SE,143,2.0,7.0,70,0.00,,,0.00,Wunderground v.1.15,2013-02-23 20:50:00,
2013-02-23 14:51:00,31.0,22.0,29.89,SE,136,2.0,7.0,69,0.00,,,0.00,Wunderground v.1.15,2013-02-23 20:51:00,
2013-02-23 14:56:00,30.8,21.8,29.89,SE,143,2.0,7.0,69,0.00,,,0.00,Wunderground v.1.15,2013-02-23 20:56:00,
2013-02-23 14:58:00,30.7,21.7,29.89,SE,134,2.0,7.0,69,0.00,,,0.00,Wunderground v.1.15,2013-02-23 20:58:00,
2013-02-23 15:02:00,30.8,22.2,29.89,SE,138,2.0,7.0,70,0.00,,,0.00,Wunderground v.1.15,2013-02-23 21:02:00,
2013-02-23 15:04:00,30.9,22.3,29.88,SSE,148,2.0,7.0,70,0.00,,,0.00,Wunderground v.1.15,2013-02-23 21:04:00,
2013-02-23 15:10:00,31.2,22.2,29.88,SE,139,2.0,2.0,69,0.00,,,0.00,Wunderground v.1.15,2013-02-23 21:10:00,
2013-02-23 15:12:00,31.3,22.3,29.88,SE,136,2.0,7.0,69,0.00,,,0.00,Wunderground v.1.15,2013-02-23 21:12:00,
2013-02-23 15:15:00,31.1,21.8,29.89,SE,132,2.0,7.0,68,0.00,,,0.00,Wunderground v.1.15,2013-02-23 21:15:00,
2013-02-23 15:18:00,30.9,21.6,29.88,SE,132,2.0,7.0,68,0.00,,,0.00,Wunderground v.1.15,2013-02-23 21:18:00,
2013-02-23 15:20:00,30.7,21.4,29.88,SE,131,2.0,2.0,68,0.00,,,0.00,Wunderground v.1.15,2013-02-23 21:20:00,
2013-02-23 15:24:00,30.5,21.5,29.88,SE,135,2.0,7.0,69,0.00,,,0.00,Wunderground v.1.15,2013-02-23 21:24:00,
2013-02-23 15:26:00,30.3,21.3,29.88,SE,127,2.0,7.0,69,0.00,,,0.00,Wunderground v.1.15,2013-02-23 21:26:00,
2013-02-23 15:30:00,30.0,21.1,29.88,SE,145,2.0,7.0,69,0.00,,,0.00,Wunderground v.1.15,2013-02-23 21:30:00,
2013-02-23 15:32:00,29.9,21.3,29.88,SE,136,2.0,7.0,70,0.00,,,0.00,Wunderground v.1.15,2013-02-23 21:32:00,
2013-02-23 15:37:00,29.7,21.4,29.88,SE,143,2.0,7.0,71,0.00,,,0.00,Wunderground v.1.15,2013-02-23 21:37:00,
2013-02-23 15:42:00,29.3,20.7,29.88,ESE,120,2.0,7.0,70,0.00,,,0.00,Wunderground v.1.15,2013-02-23 21:42:00,
2013-02-23 15:44:00,29.2,21.0,29.88,SE,143,2.0,7.0,71,0.00,,,0.00,Wunderground v.1.15,2013-02-23 21:44:00,
2013-02-23 15:48:00,29.1,20.9,29.88,SE,128,2.0,7.0,71,0.00,,,0.00,Wunderground v.1.15,2013-02-23 21:48:00,
2013-02-23 15:50:00,29.1,21.2,29.88,SE,136,2.0,7.0,72,0.00,,,0.00,Wunderground v.1.15,2013-02-23 21:50:00,
2013-02-23 15:55:00,29.8,21.5,29.88,SSE,159,2.0,7.0,71,0.00,,,0.00,Wunderground v.1.15,2013-02-23 21:55:00,
2013-02-23 15:57:00,30.2,21.6,29.88,SSE,148,2.0,7.0,70,0.00,,,0.00,Wunderground v.1.15,2013-02-23 21:57:00,
2013-02-23 16:00:00,30.4,21.8,29.88,SE,141,1.0,7.0,70,0.00,,,0.00,Wunderground v.1.15,2013-02-23 22:00:00,
2013-02-23 16:02:00,30.3,21.7,29.88,SSE,155,2.0,7.0,70,0.00,,,0.00,Wunderground v.1.15,2013-02-23 22:02:00,
2013-02-23 16:04:00,30.3,21.7,29.88,SE,135,2.0,7.0,70,0.00,,,0.00,Wunderground v.1.15,2013-02-23 22:04:00,
2013-02-23 16:10:00,29.3,20.4,29.88,SE,138,2.0,7.0,69,0.00,,,0.00,Wunderground v.1.15,2013-02-23 22:10:00,
2013-02-23 16:12:00,28.9,20.3,29.88,SE,131,2.0,7.0,70,0.00,,,0.00,Wunderground v.1.15,2013-02-23 22:12:00,
2013-02-23 16:17:00,28.0,19.8,29.88,SE,132,2.0,7.0,71,0.00,,,0.00,Wunderground v.1.15,2013-02-23 22:17:00,
2013-02-23 16:19:00,27.7,19.8,29.88,SE,134,2.0,7.0,72,0.00,,,0.00,Wunderground v.1.15,2013-02-23 22:19:00,
2013-02-23 16:24:00,27.3,19.8,29.88,SE,134,2.0,7.0,73,0.00,,,0.00,Wunderground v.1.15,2013-02-23 22:24:00,
2013-02-23 16:26:00,27.0,19.5,29.88,SE,129,2.0,7.0,73,0.00,,,0.00,Wunderground v.1.15,2013-02-23 22:26:00,
2013-02-23 16:32:00,26.8,19.6,29.88,SE,142,2.0,7.0,74,0.00,,,0.00,Wunderground v.1.15,2013-02-23 22:32:00,
2013-02-23 16:36:00,26.6,19.4,29.88,SE,134,2.0,7.0,74,0.00,,,0.00,Wunderground v.1.15,2013-02-23 22:36:00,
2013-02-23 16:37:00,26.5,19.3,29.88,SE,133,2.0,7.0,74,0.00,,,0.00,Wunderground v.1.15,2013-02-23 22:37:00,
2013-02-23 16:44:00,26.3,19.1,29.88,SE,141,2.0,7.0,74,0.00,,,0.00,Wunderground v.1.15,2013-02-23 22:44:00,
2013-02-23 16:50:00,26.0,18.5,29.88,SSE,148,1.0,7.0,73,0.00,,,0.00,Wunderground v.1.15,2013-02-23 22:50:00,
2013-02-23 16:54:00,25.4,17.6,29.88,SE,134,1.0,7.0,72,0.00,,,0.00,Wunderground v.1.15,2013-02-23 22:54:00,
2013-02-23 16:56:00,25.0,17.6,29.88,SE,134,2.0,7.0,73,0.00,,,0.00,Wunderground v.1.15,2013-02-23 22:56:00,
2013-02-23 16:59:00,24.3,17.5,29.88,SE,145,2.0,7.0,75,0.00,,,0.00,Wunderground v.1.15,2013-02-23 22:59:00,
2013-02-23 17:01:00,24.0,17.2,29.88,SSE,148,2.0,7.0,75,0.00,,,0.00,Wunderground v.1.15,2013-02-23 23:01:00,
2013-02-23 17:04:00,23.8,17.0,29.88,SSE,157,2.0,7.0,75,0.00,,,0.00,Wunderground v.1.15,2013-02-23 23:04:00,
2013-02-23 17:06:00,23.6,16.8,29.88,SSE,163,2.0,7.0,75,0.00,,,0.00,Wunderground v.1.15,2013-02-23 23:06:00,
2013-02-23 17:10:00,23.2,16.4,29.88,SSE,156,2.0,7.0,75,0.00,,,0.00,Wunderground v.1.15,2013-02-23 23:10:00,
2013-02-23 17:12:00,22.9,16.8,29.88,SE,145,2.0,7.0,77,0.00,,,0.00,Wunderground v.1.15,2013-02-23 23:12:00,
2013-02-23 17:18:00,22.5,16.7,29.88,SE,130,2.0,7.0,78,0.00,,,0.00,Wunderground v.1.15,2013-02-23 23:18:00,
2013-02-23 17:21:00,22.1,16.0,29.88,SE,139,2.0,7.0,77,0.00,,,0.00,Wunderground v.1.15,2013-02-23 23:21:00,
2013-02-23 17:23:00,21.9,16.1,29.88,SSE,150,2.0,7.0,78,0.00,,,0.00,Wunderground v.1.15,2013-02-23 23:23:00,
2013-02-23 17:28:00,21.5,16.0,29.88,SE,135,2.0,7.0,79,0.00,,,0.00,Wunderground v.1.15,2013-02-23 23:28:00,
2013-02-23 17:30:00,21.3,15.8,29.88,SE,136,2.0,7.0,79,0.00,,,0.00,Wunderground v.1.15,2013-02-23 23:30:00,
2013-02-23 17:32:00,21.1,15.9,29.88,SE,141,2.0,7.0,80,0.00,,,0.00,Wunderground v.1.15,2013-02-23 23:32:00,
2013-02-23 17:38:00,20.5,15.3,29.88,SE,133,2.0,7.0,80,0.00,,,0.00,Wunderground v.1.15,2013-02-23 23:38:00,
2013-02-23 17:43:00,19.9,15.0,29.88,SE,135,2.0,7.0,81,0.00,,,0.00,Wunderground v.1.15,2013-02-23 23:43:00,
2013-02-23 17:48:00,19.6,15.0,29.88,SE,138,2.0,7.0,82,0.00,,,0.00,Wunderground v.1.15,2013-02-23 23:48:00,
2013-02-23 17:50:00,19.4,14.8,29.89,SSE,153,2.0,7.0,82,0.00,,,0.00,Wunderground v.1.15,2013-02-23 23:50:00,
2013-02-23 17:54:00,18.8,13.9,29.88,SSE,149,2.0,7.0,81,0.00,,,0.00,Wunderground v.1.15,2013-02-23 23:54:00,
2013-02-23 17:56:00,18.4,13.5,29.88,SSE,149,2.0,7.0,81,0.00,,,0.00,Wunderground v.1.15,2013-02-23 23:56:00,
2013-02-23 17:58:00,18.0,13.4,29.88,SE,137,2.0,7.0,82,0.00,,,0.00,Wunderground v.1.15,2013-02-23 23:58:00,
2013-02-23 18:03:00,16.9,12.4,29.88,SE,143,1.0,7.0,82,0.00,,,0.00,Wunderground v.1.15,2013-02-24 00:03:00,
2013-02-23 18:05:00,16.6,12.3,29.89,SE,143,1.0,7.0,83,0.00,,,0.00,Wunderground v.1.15,2013-02-24 00:05:00,
2013-02-23 18:08:00,16.3,12.0,29.89,SE,135,1.0,7.0,83,0.00,,,0.00,Wunderground v.1.15,2013-02-24 00:08:00,
2013-02-23 18:12:00,15.6,11.6,29.88,SE,136,1.0,2.0,84,0.00,,,0.00,Wunderground v.1.15,2013-02-24 00:12:00,
2013-02-23 18:14:00,15.5,11.8,29.88,SE,137,1.0,7.0,85,0.00,,,0.00,Wunderground v.1.15,2013-02-24 00:14:00,
2013-02-23 18:18:00,15.7,12.8,29.88,SE,124,1.0,7.0,88,0.00,,,0.00,Wunderground v.1.15,2013-02-24 00:18:00,
2013-02-23 18:20:00,15.9,13.0,29.88,SE,138,2.0,7.0,88,0.00,,,0.00,Wunderground v.1.15,2013-02-24 00:20:00,
2013-02-23 18:24:00,15.5,12.3,29.88,SE,134,2.0,7.0,87,0.00,,,0.00,Wunderground v.1.15,2013-02-24 00:24:00,
2013-02-23 18:25:00,15.1,11.7,29.88,SE,146,2.0,7.0,86,0.00,,,0.00,Wunderground v.1.15,2013-02-24 00:25:00,
2013-02-23 18:27:00,14.6,11.2,29.88,SE,142,1.0,7.0,86,0.00,,,0.00,Wunderground v.1.15,2013-02-24 00:27:00,
2013-02-23 18:32:00,14.0,10.6,29.88,SE,135,1.0,7.0,86,0.00,,,0.00,Wunderground v.1.15,2013-02-24 00:32:00,
2013-02-23 18:36:00,13.8,10.9,29.89,SE,145,1.0,7.0,88,0.00,,,0.00,Wunderground v.1.15,2013-02-24 00:36:00,
2013-02-23 18:38:00,13.6,10.7,29.89,SE,141,1.0,7.0,88,0.00,,,0.00,Wunderground v.1.15,2013-02-24 00:38:00,
2013-02-23 18:40:00,13.5,10.6,29.89,SE,141,1.0,7.0,88,0.00,,,0.00,Wunderground v.1.15,2013-02-24 00:40:00,
2013-02-23 18:44:00,13.3,10.4,29.89,SE,131,1.0,7.0,88,0.00,,,0.00,Wunderground v.1.15,2013-02-24 00:44:00,
2013-02-23 18:45:00,13.5,11.1,29.89,SSE,155,1.0,7.0,90,0.00,,,0.00,Wunderground v.1.15,2013-02-24 00:45:00,
2013-02-23 18:47:00,13.7,11.3,29.89,SE,129,1.0,7.0,90,0.00,,,0.00,Wunderground v.1.15,2013-02-24 00:47:00,
2013-02-23 18:52:00,14.1,12.0,29.89,SE,135,1.0,7.0,91,0.00,,,0.00,Wunderground v.1.15,2013-02-24 00:52:00,
2013-02-23 18:54:00,14.1,12.0,29.89,SE,136,1.0,7.0,91,0.00,,,0.00,Wunderground v.1.15,2013-02-24 00:54:00,
2013-02-23 19:00:00,14.3,12.2,29.89,SE,143,2.0,7.0,91,0.00,,,0.00,Wunderground v.1.15,2013-02-24 01:00:00,
2013-02-23 19:02:00,14.4,12.3,29.89,SSW,207,2.0,7.0,91,0.00,,,0.00,Wunderground v.1.15,2013-02-24 01:02:00,
2013-02-23 19:06:00,14.8,13.1,29.89,SE,145,2.0,7.0,93,0.00,,,0.00,Wunderground v.1.15,2013-02-24 01:06:00,
2013-02-23 19:07:00,15.0,13.3,29.89,SE,135,2.0,7.0,93,0.00,,,0.00,Wunderground v.1.15,2013-02-24 01:07:00,
2013-02-23 19:12:00,15.2,13.3,29.89,SE,136,2.0,7.0,92,0.00,,,0.00,Wunderground v.1.15,2013-02-24 01:12:00,
2013-02-23 19:14:00,15.2,13.3,29.90,SE,129,2.0,7.0,92,0.00,,,0.00,Wunderground v.1.15,2013-02-24 01:14:00,
2013-02-23 19:16:00,15.2,13.3,29.89,SSE,147,2.0,7.0,92,0.00,,,0.00,Wunderground v.1.15,2013-02-24 01:16:00,
2013-02-23 19:22:00,15.0,12.8,29.89,SE,138,1.0,2.0,91,0.00,,,0.00,Wunderground v.1.15,2013-02-24 01:22:00,
2013-02-23 19:24:00,15.0,13.1,29.89,SSE,151,1.0,7.0,92,0.00,,,0.00,Wunderground v.1.15,2013-02-24 01:24:00,
2013-02-23 19:28:00,15.0,13.1,29.89,SE,138,1.0,7.0,92,0.00,,,0.00,Wunderground v.1.15,2013-02-24 01:28:00,
2013-02-23 19:29:00,14.9,13.0,29.90,SE,135,1.0,7.0,92,0.00,,,0.00,Wunderground v.1.15,2013-02-24 01:29:00,
2013-02-23 19:34:00,14.9,13.0,29.90,SE,145,1.0,7.0,92,0.00,,,0.00,Wunderground v.1.15,2013-02-24 01:34:00,
2013-02-23 19:36:00,14.8,12.9,29.90,SE,137,1.0,7.0,92,0.00,,,0.00,Wunderground v.1.15,2013-02-24 01:36:00,
2013-02-23 19:40:00,14.5,12.4,29.90,SE,136,1.0,1.0,91,0.00,,,0.00,Wunderground v.1.15,2013-02-24 01:40:00,
2013-02-23 19:44:00,14.3,12.2,29.90,SE,136,0.0,7.0,91,0.00,,,0.00,Wunderground v.1.15,2013-02-24 01:44:00,
2013-02-23 19:46:00,14.1,12.0,29.90,SE,146,0.0,7.0,91,0.00,,,0.00,Wunderground v.1.15,2013-02-24 01:46:00,
2013-02-23 19:48:00,14.0,11.9,29.90,ENE,60,0.0,7.0,91,0.00,,,0.00,Wunderground v.1.15,2013-02-24 01:48:00,
2013-02-23 19:51:00,14.0,12.1,29.90,SSE,155,0.0,7.0,92,0.00,,,0.00,Wunderground v.1.15,2013-02-24 01:51:00,
2013-02-23 19:53:00,13.9,12.0,29.90,SE,137,0.0,7.0,92,0.00,,,0.00,Wunderground v.1.15,2013-02-24 01:53:00,
2013-02-23 20:00:00,13.8,11.9,29.90,SSE,148,0.0,7.0,92,0.00,,,0.00,Wunderground v.1.15,2013-02-24 02:00:00,
2013-02-23 20:02:00,13.7,11.8,29.90,SSE,153,0.0,7.0,92,0.00,,,0.00,Wunderground v.1.15,2013-02-24 02:02:00,
2013-02-23 20:08:00,13.6,11.7,29.90,SSE,147,1.0,7.0,92,0.00,,,0.00,Wunderground v.1.15,2013-02-24 02:08:00,
2013-02-23 20:10:00,13.5,11.6,29.91,SE,142,1.0,1.0,92,0.00,,,0.00,Wunderground v.1.15,2013-02-24 02:10:00,
2013-02-23 20:16:00,13.2,11.3,29.91,SE,139,0.0,7.0,92,0.00,,,0.00,Wunderground v.1.15,2013-02-24 02:16:00,
2013-02-23 20:20:00,12.8,10.9,29.91,ESE,121,0.0,7.0,92,0.00,,,0.00,Wunderground v.1.15,2013-02-24 02:20:00,
2013-02-23 20:22:00,12.6,10.7,29.91,SE,145,0.0,7.0,92,0.00,,,0.00,Wunderground v.1.15,2013-02-24 02:22:00,
2013-02-23 20:28:00,12.2,10.3,29.92,SSE,158,0.0,7.0,92,0.00,,,0.00,Wunderground v.1.15,2013-02-24 02:28:00,
2013-02-23 20:33:00,11.9,10.0,29.91,SE,136,1.0,7.0,92,0.00,,,0.00,Wunderground v.1.15,2013-02-24 02:33:00,
2013-02-23 20:38:00,11.6,9.7,29.92,SE,136,0.0,7.0,92,0.00,,,0.00,Wunderground v.1.15,2013-02-24 02:38:00,
2013-02-23 20:40:00,11.4,9.5,29.92,SE,136,0.0,7.0,92,0.00,,,0.00,Wunderground v.1.15,2013-02-24 02:40:00,
2013-02-23 20:44:00,11.0,8.9,29.92,SE,137,0.0,7.0,91,0.00,,,0.00,Wunderground v.1.15,2013-02-24 02:44:00,
2013-02-23 20:50:00,10.2,8.1,29.92,SE,137,0.0,7.0,91,0.00,,,0.00,Wunderground v.1.15,2013-02-24 02:50:00,
2013-02-23 20:55:00,10.0,8.1,29.92,SE,137,0.0,7.0,92,0.00,,,0.00,Wunderground v.1.15,2013-02-24 02:55:00,
2013-02-23 21:02:00,9.5,7.4,29.92,SE,137,0.0,7.0,91,0.00,,,0.00,Wunderground v.1.15,2013-02-24 03:02:00,
2013-02-23 21:04:00,9.4,7.3,29.92,SE,136,0.0,7.0,91,0.00,,,0.00,Wunderground v.1.15,2013-02-24 03:04:00,
2013-02-23 21:10:00,9.0,6.9,29.93,SE,136,0.0,7.0,91,0.00,,,0.00,Wunderground v.1.15,2013-02-24 03:10:00,
2013-02-23 21:12:00,8.9,6.8,29.93,SE,136,0.0,7.0,91,0.00,,,0.00,Wunderground v.1.15,2013-02-24 03:12:00,
2013-02-23 21:15:00,8.7,6.6,29.93,SE,136,0.0,7.0,91,0.00,,,0.00,Wunderground v.1.15,2013-02-24 03:15:00,
2013-02-23 21:17:00,8.5,6.4,29.93,SE,136,0.0,7.0,91,0.00,,,0.00,Wunderground v.1.15,2013-02-24 03:17:00,
2013-02-23 21:24:00,8.0,5.9,29.93,SE,137,0.0,7.0,91,0.00,,,0.00,Wunderground v.1.15,2013-02-24 03:24:00,
2013-02-23 21:26:00,7.9,5.8,29.93,SE,136,0.0,7.0,91,0.00,,,0.00,Wunderground v.1.15,2013-02-24 03:26:00,
2013-02-23 21:30:00,7.8,5.7,29.93,SE,136,0.0,7.0,91,0.00,,,0.00,Wunderground v.1.15,2013-02-24 03:30:00,
2013-02-23 21:32:00,7.8,6.0,29.93,SE,136,0.0,7.0,92,0.00,,,0.00,Wunderground v.1.15,2013-02-24 03:32:00,
2013-02-23 21:34:00,7.9,6.1,29.93,SE,135,0.0,7.0,92,0.00,,,0.00,Wunderground v.1.15,2013-02-24 03:34:00,
2013-02-23 21:40:00,7.8,6.0,29.93,SE,135,0.0,7.0,92,0.00,,,0.00,Wunderground v.1.15,2013-02-24 03:40:00,
2013-02-23 21:42:00,7.7,5.9,29.93,SE,135,0.0,7.0,92,0.00,,,0.00,Wunderground v.1.15,2013-02-24 03:42:00,
2013-02-23 21:48:00,7.4,5.3,29.93,SE,135,0.0,7.0,91,0.00,,,0.00,Wunderground v.1.15,2013-02-24 03:48:00,
2013-02-23 21:50:00,7.3,5.2,29.93,SE,135,0.0,7.0,91,0.00,,,0.00,Wunderground v.1.15,2013-02-24 03:50:00,
2013-02-23 21:54:00,7.2,5.1,29.93,SE,135,0.0,7.0,91,0.00,,,0.00,Wunderground v.1.15,2013-02-24 03:54:00,
2013-02-23 21:56:00,7.3,5.2,29.93,SE,135,0.0,7.0,91,0.00,,,0.00,Wunderground v.1.15,2013-02-24 03:56:00,
2013-02-23 22:02:00,7.2,5.4,29.93,SSE,162,0.0,7.0,92,0.00,,,0.00,Wunderground v.1.15,2013-02-24 04:02:00,
2013-02-23 22:06:00,7.5,5.7,29.93,SSE,147,0.0,7.0,92,0.00,,,0.00,Wunderground v.1.15,2013-02-24 04:06:00,
2013-02-23 22:10:00,7.6,5.8,29.93,SE,146,0.0,7.0,92,0.00,,,0.00,Wunderground v.1.15,2013-02-24 04:10:00,
2013-02-23 22:16:00,8.2,6.8,29.93,SE,130,0.0,7.0,94,0.00,,,0.00,Wunderground v.1.15,2013-02-24 04:16:00,
2013-02-23 22:22:00,9.2,7.8,29.93,WSW,239,0.0,7.0,94,0.00,,,0.00,Wunderground v.1.15,2013-02-24 04:22:00,
2013-02-23 22:23:00,9.3,7.9,29.93,East,94,0.0,7.0,94,0.00,,,0.00,Wunderground v.1.15,2013-02-24 04:23:00,
2013-02-23 22:25:00,9.6,8.2,29.93,SE,135,0.0,7.0,94,0.00,,,0.00,Wunderground v.1.15,2013-02-24 04:25:00,
2013-02-23 22:32:00,10.0,8.6,29.93,SSE,150,0.0,7.0,94,0.00,,,0.00,Wunderground v.1.15,2013-02-24 04:32:00,
2013-02-23 22:38:00,9.9,8.3,29.93,SE,141,0.0,7.0,93,0.00,,,0.00,Wunderground v.1.15,2013-02-24 04:38:00,
2013-02-23 22:44:00,9.6,7.7,29.93,ESE,121,0.0,7.0,92,0.00,,,0.00,Wunderground v.1.15,2013-02-24 04:44:00,
2013-02-23 22:46:00,9.6,8.0,29.93,East,98,0.0,7.0,93,0.00,,,0.00,Wunderground v.1.15,2013-02-24 04:46:00,
2013-02-23 22:52:00,9.9,8.3,29.93,SE,144,0.0,7.0,93,0.00,,,0.00,Wunderground v.1.15,2013-02-24 04:52:00,
2013-02-23 22:54:00,9.7,7.8,29.93,SE,144,0.0,7.0,92,0.00,,,0.00,Wunderground v.1.15,2013-02-24 04:54:00,
2013-02-23 22:58:00,9.1,7.0,29.93,SE,131,1.0,7.0,91,0.00,,,0.00,Wunderground v.1.15,2013-02-24 04:58:00,
2013-02-23 23:00:00,9.0,6.9,29.93,SE,136,1.0,7.0,91,0.00,,,0.00,Wunderground v.1.15,2013-02-24 05:00:00,
2013-02-23 23:02:00,9.0,6.9,29.92,SSE,149,1.0,7.0,91,0.00,,,0.00,Wunderground v.1.15,2013-02-24 05:02:00,
2013-02-23 23:04:00,9.1,7.2,29.92,SE,134,1.0,7.0,92,0.00,,,0.00,Wunderground v.1.15,2013-02-24 05:04:00,
2013-02-23 23:08:00,9.3,7.4,29.92,SE,143,1.0,7.0,92,0.00,,,0.00,Wunderground v.1.15,2013-02-24 05:08:00,
2013-02-23 23:10:00,9.3,7.4,29.92,SE,143,1.0,1.0,92,0.00,,,0.00,Wunderground v.1.15,2013-02-24 05:10:00,
2013-02-23 23:14:00,9.4,7.5,29.93,SE,138,0.0,7.0,92,0.00,,,0.00,Wunderground v.1.15,2013-02-24 05:14:00,
2013-02-23 23:16:00,9.3,7.4,29.93,SE,138,0.0,7.0,92,0.00,,,0.00,Wunderground v.1.15,2013-02-24 05:16:00,
2013-02-23 23:20:00,9.1,7.0,29.93,SE,135,0.0,7.0,91,0.00,,,0.00,Wunderground v.1.15,2013-02-24 05:20:00,
2013-02-23 23:22:00,9.0,6.9,29.93,SE,136,0.0,7.0,91,0.00,,,0.00,Wunderground v.1.15,2013-02-24 05:22:00,
2013-02-23 23:24:00,8.9,7.1,29.93,SE,135,0.0,7.0,92,0.00,,,0.00,Wunderground v.1.15,2013-02-24 05:24:00,
2013-02-23 23:30:00,9.4,7.5,29.93,South,176,0.0,7.0,92,0.00,,,0.00,Wunderground v.1.15,2013-02-24 05:30:00,
2013-02-23 23:31:00,9.6,8.0,29.93,ESE,110,0.0,7.0,93,0.00,,,0.00,Wunderground v.1.15,2013-02-24 05:31:00,
2013-02-23 23:33:00,9.8,8.2,29.93,SE,136,0.0,7.0,93,0.00,,,0.00,Wunderground v.1.15,2013-02-24 05:33:00,
2013-02-23 23:35:00,10.0,8.4,29.93,SE,135,1.0,7.0,93,0.00,,,0.00,Wunderground v.1.15,2013-02-24 05:35:00,
2013-02-23 23:40:00,10.2,8.6,29.93,SE,136,1.0,7.0,93,0.00,,,0.00,Wunderground v.1.15,2013-02-24 05:40:00,
2013-02-23 23:42:00,10.2,8.6,29.93,SE,141,1.0,7.0,93,0.00,,,0.00,Wunderground v.1.15,2013-02-24 05:42:00,
2013-02-23 23:46:00,10.0,8.1,29.93,SE,141,1.0,7.0,92,0.00,,,0.00,Wunderground v.1.15,2013-02-24 05:46:00,
2013-02-23 23:50:00,9.8,7.9,29.93,SE,145,0.0,7.0,92,0.00,,,0.00,Wunderground v.1.15,2013-02-24 05:50:00,
2013-02-23 23:52:00,9.7,7.8,29.93,SE,135,0.0,7.0,92,0.00,,,0.00,Wunderground v.1.15,2013-02-24 05:52:00,
2013-02-23 23:55:00,9.6,7.7,29.93,SE,141,0.0,7.0,92,0.00,,,0.00,Wunderground v.1.15,2013-02-24 05:55:00,
2013-02-23 23:58:00,9.6,7.7,29.93,SSE,154,0.0,7.0,92,0.00,,,0.00,Wunderground v.1.15,2013-02-24 05:58:00,